Home > Products > Valid Products > TAF

000
FTUS43 KGLD 310539
TAFGLD
TAF
KGLD 310539Z 3106/0106 VRB06KT P6SM VCSH BKN100 OVC250
     FM310900 35008KT 4SM BR OVC010
     FM311300 03012G18KT P6SM BKN012
     FM311500 04013KT P6SM BKN025
     FM311800 04012KT P6SM SCT050=



000
FTUS43 KGLD 310539
TAFMCK
TAF
KMCK 310539Z 3106/0106 VRB06KT P6SM VCSH BKN100 OVC250
     FM310900 35012KT 3SM BR OVC010
     FM311300 03012G18KT P6SM BKN020
     FM311800 03012KT P6SM SCT060=



000
FTUS43 KGLD 301124
TAFMCK
TAF
KMCK 301124Z 3012/3112 VRB04KT P6SM SCT250
     FM301400 20008KT P6SM SCT250
     FM302100 18012KT P6SM VCTS SCT060CB
     FM310000 19010KT 5SM -TSRA BKN050CB
     FM310600 26007KT P6SM VCTS BKN080CB
     FM310800 34008KT P6SM VCSH BKN100=



000
FTUS43 KGLD 301124
TAFGLD
TAF
KGLD 301124Z 3012/3112 20008KT P6SM SCT200
     FM301800 16010KT P6SM SCT250
     FM302100 17011KT P6SM VCTS SCT040CB
     FM310000 19011KT 3SM -TSRA BKN030CB
     FM310400 28015KT P6SM VCTS SCT040CB BKN100
     FM310700 34008KT P6SM VCSH BKN080=



000
FTUS43 KGLD 292256 AAA
TAFMCK
TAF AMD
KMCK 292256Z 2923/3018 18015G24KT P6SM -TSRA BKN090CB
     FM300000 13010KT P6SM VCTS BKN090CB=



000
FTUS43 KGLD 290614 AAA
TAFMCK
TAF AMD
KMCK 290614Z 2906/3006 VRB05KT P6SM SCT050
      TEMPO 2906/2908 6SM -TSRA BKN050CB
     FM290800 24004KT P6SM SCT150
     FM291700 18006KT P6SM SCT060
     FM292300 14010KT P6SM SCT050=



000
FTUS43 KGLD 281721
TAFMCK
TAF
KMCK 281721Z 2818/2918 VRB05KT P6SM SCT035
     FM290100 23006KT P6SM FEW250=



000
FTUS43 KGLD 281721
TAFGLD
TAF
KGLD 281721Z 2818/2918 31010KT P6SM SCT050
     FM290100 27005KT P6SM SCT250=



000
FTUS43 KGLD 281121 AAB
TAFMCK
TAF AMD
KMCK 281121Z 2811/2906 31007KT P6SM SCT080
     FM281900 28008KT P6SM SCT040
     FM290000 23006KT P6SM FEW250
     FM290300 VRB05KT P6SM SCT250=



000
FTUS43 KGLD 281121 AAB
TAFGLD
TAF AMD
KGLD 281121Z 2811/2906 30007KT P6SM SCT250
     FM282100 26007KT P6SM SCT050
     FM290000 21007KT P6SM FEW050
     FM290200 17006KT P6SM SCT250=



    US Dept of Commerce
    National Oceanic and Atmospheric Administration
    National Weather Service
    1325 East West Highway
    Silver Spring, MD 20910
    Page Author: NWS Internet Services Team
Disclaimer
Information Quality
Credits
Glossary
Privacy Policy
Freedom of Information Act (FOIA)
About Us
Career Opportunities